Time;durP1;ratioP1;P1;durP2;ratioP2;P2;SDS_P1;SDS_P2;PMS_P1;PMS_P2;Temp;Humidity;BMP_temperature;BMP_pressure;BME280_temperature;BME280_humidity;BME280_pressure;Samples;Min_cycle;Max_cycle;Signal;HPM_P1;HPM_P2
2022/06/10 00:00:47;;;;;;;;;9.50;9.50;;;;;18.29;62.49;101278.47;5117463;27;45278;-76
2022/06/10 00:03:15;;;;;;;;;8.00;7.00;;;;;18.32;62.47;101272.13;5117291;27;45443;-76
2022/06/10 00:05:43;;;;;;;;;10.50;9.00;;;;;18.30;62.60;101274.84;5117219;27;45556;-75
2022/06/10 00:08:13;;;;;;;;;7.25;7.25;;;;;18.28;62.47;101263.44;5117575;27;45845;-77
2022/06/10 00:10:45;;;;;;;;;8.50;7.00;;;;;18.35;62.37;101277.25;5115969;27;45447;-75
2022/06/10 00:13:11;;;;;;;;;9.00;6.75;;;;;18.36;62.45;101278.97;5115722;27;45445;-76
2022/06/10 00:15:36;;;;;;;;;5.75;5.00;;;;;18.36;62.37;101271.81;5117544;27;45443;-76
2022/06/10 00:18:02;;;;;;;;;7.25;6.00;;;;;18.39;62.45;101276.09;5115737;27;45430;-74
2022/06/10 00:20:30;;;;;;;;;8.75;7.50;;;;;18.43;62.73;101282.06;5117235;27;45424;-75
2022/06/10 00:22:56;;;;;;;;;16.25;16.25;;;;;18.39;62.63;101276.94;5117260;27;45447;-76
2022/06/10 00:25:21;;;;;;;;;13.00;11.75;;;;;18.46;62.66;101279.22;5115697;27;47173;-75
2022/06/10 00:27:48;;;;;;;;;7.75;6.50;;;;;18.46;62.83;101280.09;5117047;27;45251;-76
2022/06/10 00:30:16;;;;;;;;;7.50;6.00;;;;;18.42;62.41;101267.94;5115761;27;45330;-76
2022/06/10 00:32:41;;;;;;;;;5.75;5.75;;;;;18.43;62.50;101266.97;5117227;27;45540;-76
2022/06/10 00:35:08;;;;;;;;;4.75;4.75;;;;;18.44;62.90;101266.03;5116896;27;45637;-76
2022/06/10 00:37:33;;;;;;;;;6.50;5.25;;;;;18.45;62.76;101266.84;5116762;27;45327;-76
2022/06/10 00:39:58;;;;;;;;;11.00;5.25;;;;;18.38;62.54;101261.91;5116964;27;45407;-75
2022/06/10 00:42:24;;;;;;;;;6.75;5.25;;;;;18.42;62.94;101267.06;5116973;27;45427;-76
2022/06/10 00:44:53;;;;;;;;;7.00;5.75;;;;;18.37;62.73;101270.03;5116503;27;46427;-76
2022/06/10 00:47:39;;;;;;;;;10.75;6.00;;;;;18.39;62.66;101268.97;5116688;27;45326;-77
2022/06/10 00:50:26;;;;;;;;;6.50;6.50;;;;;18.37;62.98;101265.53;5116673;27;45274;-75
2022/06/10 00:52:58;;;;;;;;;7.50;5.75;;;;;18.33;63.06;101258.69;5116883;27;45412;-75
2022/06/10 00:55:28;;;;;;;;;11.00;7.25;;;;;18.33;62.83;101253.34;5115188;27;46636;-76
2022/06/10 00:58:04;;;;;;;;;8.25;5.00;;;;;18.39;62.73;101257.47;5116394;27;45404;-75
2022/06/10 01:00:30;;;;;;;;;5.00;5.00;;;;;18.38;62.86;101256.59;5116447;27;45375;-77
2022/06/10 01:02:56;;;;;;;;;6.25;6.25;;;;;18.33;63.00;101248.03;5116568;27;45578;-76
2022/06/10 01:05:26;;;;;;;;;7.75;5.00;;;;;18.38;63.08;101251.25;5116404;27;46459;-75
2022/06/10 01:07:59;;;;;;;;;8.00;5.50;;;;;18.33;62.82;101241.88;5116145;27;45652;-77
2022/06/10 01:10:26;;;;;;;;;9.25;8.75;;;;;18.31;62.96;101249.94;5114638;27;45365;-76
2022/06/10 01:13:07;;;;;;;;;9.00;8.00;;;;;18.32;63.02;101256.13;5115235;27;45274;-79
2022/06/10 01:15:42;;;;;;;;;9.00;7.25;;;;;18.26;62.85;101246.72;5114847;27;47411;-78
2022/06/10 01:18:21;;;;;;;;;7.00;6.00;;;;;18.25;63.33;101258.31;5116295;27;45321;-76
2022/06/10 01:21:15;;;;;;;;;6.00;5.25;;;;;18.20;63.03;101249.75;5115093;27;45467;-77
2022/06/10 01:24:19;;;;;;;;;6.00;6.00;;;;;18.16;63.45;101257.09;5116643;27;45335;-77
2022/06/10 01:27:48;;;;;;;;;5.50;4.75;;;;;18.16;63.32;101259.75;5096848;27;45969;-76
2022/06/10 01:30:35;;;;;;;;;8.00;5.50;;;;;18.16;63.55;101256.22;5118812;27;45460;-75
2022/06/10 01:33:16;;;;;;;;;5.00;5.00;;;;;18.14;63.74;101256.31;5118357;27;45294;-77
2022/06/10 01:35:56;;;;;;;;;7.50;6.25;;;;;18.17;63.55;101257.94;5121263;27;45302;-78
2022/06/10 01:38:50;;;;;;;;;5.00;4.25;;;;;18.16;63.57;101259.75;5120024;27;45457;-76
2022/06/10 01:41:39;;;;;;;;;4.50;4.50;;;;;18.16;63.93;101253.56;5119592;27;45362;-77
2022/06/10 01:44:50;;;;;;;;;8.75;8.75;;;;;18.15;63.84;101250.06;5080930;27;45396;-77
2022/06/10 01:47:26;;;;;;;;;5.50;5.50;;;;;18.14;63.80;101245.69;5120232;27;45285;-76
2022/06/10 01:49:59;;;;;;;;;6.75;5.00;;;;;18.12;63.69;101255.56;5119813;27;45468;-80
2022/06/10 01:52:51;;;;;;;;;4.50;4.50;;;;;18.12;63.64;101252.91;5119571;27;45329;-79
2022/06/10 01:55:23;;;;;;;;;10.00;8.00;;;;;18.10;64.00;101260.97;5119570;27;45367;-78
2022/06/10 01:58:28;;;;;;;;;9.50;7.75;;;;;18.13;64.01;101267.94;5119579;27;45206;-78
2022/06/10 02:01:00;;;;;;;;;6.75;6.75;;;;;18.13;64.12;101257.28;5107382;27;45469;-79
2022/06/10 02:03:44;;;;;;;;;7.75;6.25;;;;;18.13;64.29;101253.75;5119619;27;45317;-78
2022/06/10 02:06:17;;;;;;;;;10.00;8.00;;;;;18.14;64.18;101269.63;5119593;27;45371;-79
2022/06/10 02:08:50;;;;;;;;;7.25;5.50;;;;;18.08;64.17;101248.72;5119992;27;45822;-79
2022/06/10 02:11:19;;;;;;;;;6.25;6.25;;;;;18.13;64.16;101259.06;5119433;27;46043;-77
2022/06/10 02:13:47;;;;;;;;;9.75;5.75;;;;;18.12;64.42;101263.56;5119516;27;45329;-78
2022/06/10 02:16:18;;;;;;;;;10.25;8.75;;;;;18.13;64.42;101267.06;5119926;27;45402;-78
2022/06/10 02:19:02;;;;;;;;;9.50;6.00;;;;;18.01;63.99;101242.03;5120321;27;45355;-78
2022/06/10 02:21:33;;;;;;;;;6.00;6.00;;;;;18.14;64.27;101266.09;5119799;27;45313;-77
2022/06/10 02:24:07;;;;;;;;;5.00;5.00;;;;;18.14;63.85;101252.78;5119689;27;45180;-78
2022/06/10 02:26:35;;;;;;;;;6.75;6.75;;;;;18.13;63.95;101262.59;5118851;27;45340;-75
2022/06/10 02:29:07;;;;;;;;;6.25;6.25;;;;;18.13;63.76;101259.06;5120246;27;45559;-75
2022/06/10 02:31:39;;;;;;;;;10.25;7.25;;;;;18.08;64.09;101246.91;5117301;27;46795;-76
2022/06/10 02:34:06;;;;;;;;;7.75;5.00;;;;;18.09;64.06;101259.25;5117484;27;45409;-76
2022/06/10 02:36:49;;;;;;;;;6.00;6.00;;;;;18.08;64.18;101252.22;5119145;27;45260;-76
2022/06/10 02:39:25;;;;;;;;;6.75;6.00;;;;;18.06;64.53;101263.94;5119507;27;45258;-76
2022/06/10 02:42:08;;;;;;;;;8.25;6.25;;;;;18.02;64.14;101265.91;5117580;27;45644;-75
2022/06/10 02:44:55;;;;;;;;;5.75;5.75;;;;;18.01;63.95;101268.66;5118554;27;45410;-77
2022/06/10 02:47:28;;;;;;;;;6.00;5.50;;;;;17.96;63.97;101263.59;5118773;27;45412;-76
2022/06/10 02:49:55;;;;;;;;;6.00;6.00;;;;;17.93;64.07;101261.94;5118503;27;45366;-75
2022/06/10 02:52:26;;;;;;;;;9.00;6.50;;;;;17.89;64.08;101271.06;5118195;27;45381;-74
2022/06/10 02:54:51;;;;;;;;;7.50;6.25;;;;;17.83;64.23;101274.09;5118501;27;45341;-77
2022/06/10 03:01:11;;;;;;;;;7.75;7.00;;;;;17.73;64.13;101276.47;5118798;27;45334;-76
2022/06/10 03:03:26;;;;;;;;;7.25;5.00;;;;;17.58;64.62;101278.22;5118441;27;45815;-77
2022/06/10 03:06:01;;;;;;;;;7.75;5.00;;;;;17.52;64.51;101283.91;5117423;27;45336;-76
2022/06/10 03:08:36;;;;;;;;;7.50;5.75;;;;;17.41;64.59;101289.00;5118525;27;45371;-75
2022/06/10 03:11:09;;;;;;;;;9.50;6.50;;;;;17.37;64.97;101283.84;5118469;27;45459;-76
2022/06/10 03:14:10;;;;;;;;;6.50;5.25;;;;;17.31;64.86;101281.56;5118258;27;45559;-78
2022/06/10 03:16:47;;;;;;;;;5.50;5.50;;;;;17.27;65.10;101284.47;5118255;27;45322;-77
2022/06/10 03:19:40;;;;;;;;;7.00;5.75;;;;;17.21;64.92;101283.88;5116679;27;45380;-77
2022/06/10 03:22:31;;;;;;;;;6.00;4.25;;;;;17.16;64.92;101285.94;5116926;27;45435;-75
2022/06/10 03:25:20;;;;;;;;;5.00;5.00;;;;;17.12;64.97;101294.19;5116469;27;48149;-76
2022/06/10 03:28:24;;;;;;;;;5.25;5.25;;;;;17.06;65.34;101288.28;5116762;27;45371;-76
2022/06/10 03:31:01;;;;;;;;;4.75;4.75;;;;;16.99;65.53;101292.22;5083445;27;45352;-76
2022/06/10 03:33:37;;;;;;;;;5.50;5.50;;;;;16.94;65.54;101288.91;5118192;27;45323;-76
2022/06/10 03:36:09;;;;;;;;;7.00;5.00;;;;;16.93;65.70;101300.47;5117690;27;46193;-76
2022/06/10 03:38:40;;;;;;;;;8.25;5.00;;;;;16.90;65.79;101293.53;5116301;27;45464;-76
2022/06/10 03:41:05;;;;;;;;;7.25;5.00;;;;;16.90;66.08;101298.84;5118382;27;45259;-76
2022/06/10 03:43:39;;;;;;;;;5.50;4.00;;;;;16.83;65.94;101283.31;5117909;27;45649;-76
2022/06/10 03:46:08;;;;;;;;;7.50;4.50;;;;;16.85;66.32;101294.72;5116255;27;47282;-77
2022/06/10 03:48:37;;;;;;;;;10.25;9.25;;;;;16.83;66.30;101288.63;5117592;27;45359;-75
2022/06/10 03:51:04;;;;;;;;;7.00;6.50;;;;;16.77;66.67;101277.41;5117756;27;45320;-75
2022/06/10 03:53:30;;;;;;;;;5.50;5.50;;;;;16.78;66.35;101294.22;5117692;27;45321;-76
2022/06/10 03:55:55;;;;;;;;;5.50;5.50;;;;;16.79;66.67;101299.44;5117876;27;46195;-76
2022/06/10 03:58:21;;;;;;;;;5.75;3.75;;;;;16.78;66.80;101297.72;5117648;27;45460;-76
2022/06/10 04:00:47;;;;;;;;;6.75;5.00;;;;;16.76;66.93;101296.94;5118052;27;45714;-75
2022/06/10 04:03:12;;;;;;;;;6.00;4.75;;;;;16.75;67.36;101297.88;5117818;27;45322;-79
2022/06/10 04:05:38;;;;;;;;;8.00;6.25;;;;;16.72;67.17;101290.09;5117442;27;45448;-75
2022/06/10 04:08:04;;;;;;;;;6.25;6.00;;;;;16.73;67.39;101293.63;5116412;27;45343;-78
2022/06/10 04:10:30;;;;;;;;;5.50;4.75;;;;;16.72;67.42;101298.06;5117732;27;45480;-76
2022/06/10 04:12:56;;;;;;;;;6.50;6.50;;;;;16.69;67.53;101295.56;5117684;27;45263;-76
2022/06/10 04:15:25;;;;;;;;;6.50;6.00;;;;;16.69;67.47;101292.06;5116211;27;46216;-77
2022/06/10 04:17:51;;;;;;;;;7.00;7.00;;;;;16.72;67.82;101306.03;5117867;27;45436;-75
2022/06/10 04:20:23;;;;;;;;;11.75;6.75;;;;;16.75;67.83;101305.84;5117661;27;45697;-75
2022/06/10 04:22:48;;;;;;;;;7.50;7.50;;;;;16.77;67.77;101308.44;5117629;27;45254;-74
2022/06/10 04:25:14;;;;;;;;;7.50;7.50;;;;;16.77;68.01;101309.28;5116786;27;45463;-74
2022/06/10 04:27:39;;;;;;;;;7.00;5.25;;;;;16.78;67.81;101313.66;5117102;27;45245;-75
2022/06/10 04:30:07;;;;;;;;;7.50;6.75;;;;;16.81;67.84;101312.66;5117499;27;45679;-75
2022/06/10 04:32:33;;;;;;;;;6.00;6.00;;;;;16.82;67.98;101313.50;5117691;27;45479;-76
2022/06/10 04:34:58;;;;;;;;;6.75;5.50;;;;;16.80;68.08;101311.78;5118161;27;45401;-77
2022/06/10 04:37:25;;;;;;;;;6.00;6.00;;;;;16.77;68.24;101297.81;5117097;27;45388;-76
2022/06/10 04:39:50;;;;;;;;;6.00;6.00;;;;;16.89;68.09;101317.53;5117930;27;45395;-75
2022/06/10 04:42:15;;;;;;;;;5.25;5.25;;;;;16.90;67.90;101325.44;5117527;27;45559;-76
2022/06/10 04:44:41;;;;;;;;;6.25;6.25;;;;;16.89;68.18;101312.22;5116159;27;47204;-75
2022/06/10 04:47:07;;;;;;;;;7.25;5.25;;;;;16.91;68.24;101316.50;5117422;27;45488;-75
2022/06/10 04:49:33;;;;;;;;;7.00;5.50;;;;;16.97;68.16;101317.13;5116980;27;45436;-75
2022/06/10 04:51:58;;;;;;;;;7.00;5.25;;;;;16.96;67.94;101312.75;5117097;27;45650;-75
2022/06/10 04:54:24;;;;;;;;;8.25;7.00;;;;;17.01;68.03;101316.91;5116490;27;45481;-76
2022/06/10 04:56:49;;;;;;;;;7.00;6.00;;;;;17.14;68.12;101322.38;5115413;27;45358;-76
2022/06/10 04:59:14;;;;;;;;;5.00;5.00;;;;;17.42;67.89;101319.97;5116719;27;45246;-76
2022/06/10 05:01:40;;;;;;;;;4.00;4.00;;;;;17.83;67.13;101307.84;5117129;27;45637;-75
2022/06/10 05:04:05;;;;;;;;;6.00;6.00;;;;;18.25;65.95;101311.56;5132347;27;47056;-75
2022/06/10 05:06:30;;;;;;;;;5.00;5.00;;;;;18.68;65.11;101308.91;5116892;27;45186;-77
2022/06/10 05:08:56;;;;;;;;;6.00;6.00;;;;;19.09;64.50;101312.59;5116785;27;45448;-76
2022/06/10 05:11:22;;;;;;;;;6.25;6.25;;;;;19.44;63.89;101302.38;5132904;27;45370;-76
2022/06/10 05:13:47;;;;;;;;;4.00;4.00;;;;;19.81;62.62;101307.91;5116240;27;45527;-75
2022/06/10 05:16:13;;;;;;;;;6.00;5.00;;;;;20.18;61.77;101305.44;5116596;27;45415;-75
2022/06/10 05:18:39;;;;;;;;;4.25;4.25;;;;;20.60;60.58;101315.84;5116586;27;45419;-77
2022/06/10 05:21:04;;;;;;;;;6.50;5.75;;;;;20.87;59.61;101306.88;5116743;27;45613;-75
2022/06/10 05:23:30;;;;;;;;;6.00;6.00;;;;;21.14;59.49;101313.84;5116027;27;45454;-78
2022/06/10 05:25:55;;;;;;;;;5.00;5.00;;;;;21.26;58.67;101304.06;5114784;27;45413;-75
2022/06/10 05:28:22;;;;;;;;;8.75;7.25;;;;;21.34;58.67;101316.84;5115141;27;45396;-76
2022/06/10 05:30:48;;;;;;;;;4.00;4.00;;;;;21.34;58.04;101315.06;5116548;27;45539;-75
2022/06/10 05:33:14;;;;;;;;;7.00;4.25;;;;;21.39;58.04;101314.69;5114624;27;47101;-78
2022/06/10 05:35:41;;;;;;;;;6.25;5.00;;;;;21.47;57.80;101322.16;5116069;27;45410;-76
2022/06/10 05:38:07;;;;;;;;;6.50;4.25;;;;;21.52;57.68;101326.19;5115422;27;45325;-75
2022/06/10 05:40:34;;;;;;;;;3.75;3.75;;;;;21.58;57.68;101322.19;5115910;27;45550;-76
2022/06/10 05:43:00;;;;;;;;;12.00;6.50;;;;;21.54;57.81;101312.69;5115463;27;46386;-77
2022/06/10 05:45:26;;;;;;;;;5.75;5.75;;;;;21.57;56.94;101329.38;5116058;27;45888;-78
2022/06/10 05:47:58;;;;;;;;;8.50;6.50;;;;;21.44;57.47;101324.09;5116280;27;45288;-78
2022/06/10 05:50:43;;;;;;;;;4.50;4.50;;;;;21.43;57.22;101326.88;5116361;27;45351;-77
2022/06/10 05:53:12;;;;;;;;;6.00;6.00;;;;;21.34;57.04;101333.78;5115765;27;46501;-77
2022/06/10 05:55:38;;;;;;;;;5.75;4.25;;;;;21.25;57.31;101337.97;5115960;27;45467;-79
2022/06/10 05:58:03;;;;;;;;;8.75;7.75;;;;;21.13;57.34;101342.41;5115755;27;45292;-78
2022/06/10 06:00:31;;;;;;;;;6.00;6.00;;;;;20.99;57.75;101356.78;5116193;27;45599;-76
2022/06/10 06:02:58;;;;;;;;;6.25;6.25;;;;;20.81;58.37;101345.59;5115944;27;46444;-74
2022/06/10 06:05:24;;;;;;;;;6.25;5.25;;;;;20.64;58.08;101349.41;5115618;27;45391;-74
2022/06/10 06:07:50;;;;;;;;;8.75;7.50;;;;;20.46;58.78;101353.38;5114243;27;45487;-72
2022/06/10 06:10:20;;;;;;;;;7.25;6.00;;;;;20.33;59.34;101353.41;5115477;27;45482;-69
2022/06/10 06:12:45;;;;;;;;;5.00;5.00;;;;;20.20;58.80;101364.94;5115196;27;45518;-70
2022/06/10 06:15:12;;;;;;;;;5.25;5.25;;;;;20.08;59.54;101363.09;5115695;27;45492;-75
2022/06/10 06:17:38;;;;;;;;;7.25;6.00;;;;;19.96;59.92;101372.81;5118893;27;45414;-75
2022/06/10 06:20:04;;;;;;;;;5.25;5.25;;;;;19.88;60.00;101372.44;5119497;27;45537;-76
2022/06/10 06:22:30;;;;;;;;;11.75;11.75;;;;;19.79;60.39;101364.09;5134343;27;47145;-75
2022/06/10 06:24:55;;;;;;;;;7.00;6.25;;;;;19.74;61.08;101362.66;5119614;27;45438;-75
2022/06/10 06:27:21;;;;;;;;;7.25;4.25;;;;;19.64;60.79;101351.75;5114857;27;45400;-73
2022/06/10 06:29:47;;;;;;;;;7.50;6.75;;;;;19.62;61.15;101364.34;5096310;27;45384;-75
2022/06/10 06:32:12;;;;;;;;;4.25;3.75;;;;;19.58;61.10;101362.81;5097003;27;45580;-74
2022/06/10 06:34:38;;;;;;;;;6.00;6.00;;;;;19.59;61.28;101367.19;5097396;27;45454;-75
2022/06/10 06:37:05;;;;;;;;;5.00;5.00;;;;;19.51;61.22;101360.56;5097199;27;45424;-73
2022/06/10 06:39:31;;;;;;;;;6.75;6.75;;;;;19.52;61.05;101366.75;5096953;27;45342;-75
2022/06/10 06:41:57;;;;;;;;;6.00;5.25;;;;;19.54;61.62;101362.19;5097440;27;45528;-75
2022/06/10 06:44:23;;;;;;;;;5.50;5.50;;;;;19.52;61.24;101367.59;5097419;27;45469;-74
2022/06/10 06:46:49;;;;;;;;;8.50;7.50;;;;;19.50;61.46;101368.66;5097463;27;45363;-76
2022/06/10 06:49:19;;;;;;;;;6.25;6.25;;;;;19.49;61.72;101370.47;5095961;27;45422;-73
2022/06/10 06:51:44;;;;;;;;;7.50;5.25;;;;;19.52;61.50;101372.09;5097023;27;45490;-77
2022/06/10 06:54:10;;;;;;;;;5.75;4.00;;;;;19.53;61.15;101368.47;5096766;27;45582;-77
2022/06/10 06:56:36;;;;;;;;;6.00;4.25;;;;;19.54;61.64;101372.84;5097293;27;45430;-73
2022/06/10 06:59:03;;;;;;;;;6.00;4.00;;;;;19.56;61.48;101369.09;5096947;27;45519;-73
2022/06/10 07:01:29;;;;;;;;;3.25;3.25;;;;;19.57;61.10;101367.31;5097113;27;45452;-73
2022/06/10 07:03:54;;;;;;;;;6.25;4.25;;;;;19.58;60.91;101362.81;5096500;27;45365;-73
2022/06/10 07:06:19;;;;;;;;;5.00;4.50;;;;;19.61;60.59;101366.16;5097009;27;45387;-73
2022/06/10 07:08:45;;;;;;;;;6.50;5.25;;;;;19.64;60.64;101362.44;5097372;27;45496;-73
2022/06/10 07:11:10;;;;;;;;;5.00;3.00;;;;;19.68;60.17;101364.78;5095894;27;46434;-73
2022/06/10 07:13:37;;;;;;;;;3.25;2.25;;;;;19.71;60.19;101361.06;5096417;27;45432;-72
2022/06/10 07:16:04;;;;;;;;;8.25;7.50;;;;;19.79;60.40;101366.75;5095076;27;45415;-72
2022/06/10 07:18:30;;;;;;;;;6.00;3.25;;;;;19.87;59.90;101370.72;5096748;27;45695;-73
2022/06/10 07:20:56;;;;;;;;;3.00;3.00;;;;;19.94;59.57;101361.38;5096488;27;45400;-75
2022/06/10 07:23:21;;;;;;;;;4.00;3.75;;;;;19.99;59.42;101364.59;5095557;27;45440;-74
2022/06/10 07:25:47;;;;;;;;;12.75;11.00;;;;;20.04;59.64;101358.91;5096077;27;45566;-76
2022/06/10 07:28:14;;;;;;;;;4.75;4.00;;;;;20.04;59.64;101353.56;5095590;27;45585;-73
2022/06/10 07:30:40;;;;;;;;;4.50;4.00;;;;;20.09;59.28;101356.78;5094619;27;45953;-73
2022/06/10 07:33:06;;;;;;;;;7.50;5.00;;;;;20.16;59.07;101360.78;5096466;27;45558;-73
2022/06/10 07:35:32;;;;;;;;;6.00;3.50;;;;;20.25;59.34;101369.94;5095925;27;45349;-73
2022/06/10 07:37:58;;;;;;;;;3.75;3.75;;;;;20.35;58.69;101372.84;5097415;27;45507;-73
2022/06/10 07:43:15;;;;;;;;;3.00;3.00;;;;;20.56;58.08;101382.03;5097730;27;45329;-75
2022/06/10 07:45:41;;;;;;;;;2.50;1.75;;;;;20.69;58.20;101375.84;5096298;27;45692;-73
2022/06/10 07:48:10;;;;;;;;;3.75;3.00;;;;;20.90;57.52;101389.53;5096141;27;45308;-73
2022/06/10 07:50:36;;;;;;;;;4.00;3.00;;;;;21.12;57.08;101390.66;5095204;27;46411;-72
2022/06/10 07:53:02;;;;;;;;;7.00;6.25;;;;;21.37;57.45;101376.38;5095491;27;45348;-73
2022/06/10 07:55:27;;;;;;;;;4.00;2.25;;;;;21.61;56.01;101378.19;5095551;27;45404;-73
2022/06/10 07:57:53;;;;;;;;;13.50;11.50;;;;;21.92;56.00;101381.25;5096122;27;45423;-73
2022/06/10 08:00:19;;;;;;;;;4.25;1.25;;;;;22.20;54.95;101379.16;5095466;27;45409;-73
2022/06/10 08:02:44;;;;;;;;;1.00;1.00;;;;;22.32;54.31;101372.88;5095673;27;45400;-73
2022/06/10 08:05:14;;;;;;;;;2.00;2.00;;;;;22.45;53.90;101378.13;5093916;27;45771;-73
2022/06/10 08:07:40;;;;;;;;;3.25;2.00;;;;;22.41;53.68;101376.63;5095986;27;45641;-75
2022/06/10 08:10:08;;;;;;;;;2.75;2.00;;;;;22.33;53.34;101377.25;5095098;27;45480;-73
2022/06/10 08:12:34;;;;;;;;;3.00;3.00;;;;;22.30;53.84;101373.94;5095961;27;45464;-74
2022/06/10 08:14:59;;;;;;;;;10.00;5.00;;;;;22.29;53.93;101373.09;5095725;27;45442;-73
2022/06/10 08:17:25;;;;;;;;;3.75;3.00;;;;;22.31;53.85;101370.28;5095767;27;45479;-75
2022/06/10 08:19:50;;;;;;;;;4.25;4.25;;;;;22.26;54.15;101373.31;5095449;27;45493;-74
2022/06/10 08:22:35;;;;;;;;;3.50;3.50;;;;;22.23;53.73;101367.34;5095242;27;45448;-73
2022/06/10 08:25:07;;;;;;;;;4.00;3.00;;;;;22.21;54.15;101375.50;5095971;27;45365;-73
2022/06/10 08:27:34;;;;;;;;;4.25;2.00;;;;;22.30;53.90;101374.81;5095446;27;45287;-73
2022/06/10 08:30:02;;;;;;;;;3.50;3.00;;;;;22.51;53.89;101376.81;5095345;27;46143;-74
2022/06/10 08:32:27;;;;;;;;;3.50;3.25;;;;;22.73;53.50;101367.06;5093607;27;45776;-74
2022/06/10 08:34:52;;;;;;;;;3.00;3.00;;;;;22.92;53.29;101355.72;5095619;27;45465;-74
2022/06/10 08:37:18;;;;;;;;;3.75;3.75;;;;;22.97;52.81;101360.72;5095517;27;45361;-73
2022/06/10 08:39:43;;;;;;;;;4.75;2.75;;;;;22.93;52.58;101359.25;5092591;27;47254;-73
2022/06/10 08:42:27;;;;;;;;;2.75;2.75;;;;;22.90;52.00;101358.50;5094800;27;45241;-74
2022/06/10 08:44:58;;;;;;;;;1.00;1.00;;;;;22.91;50.89;101354.03;5094223;27;45341;-73
2022/06/10 08:47:42;;;;;;;;;1.50;1.50;;;;;22.81;51.07;101355.75;5095903;27;45399;-75
2022/06/10 08:50:30;;;;;;;;;2.00;2.00;;;;;22.76;50.93;101358.78;5098505;27;45515;-77
2022/06/10 08:53:11;;;;;;;;;2.00;1.00;;;;;22.87;50.48;101353.41;5095197;27;45364;-73
2022/06/10 08:56:08;;;;;;;;;1.00;0.00;;;;;22.97;50.60;101355.34;5095196;27;45373;-77
2022/06/10 08:58:53;;;;;;;;;2.50;2.00;;;;;22.98;50.84;101359.72;5076452;27;45288;-77
2022/06/10 09:01:22;;;;;;;;;3.25;2.00;;;;;23.06;50.87;101362.63;5086974;27;48428;-80
2022/06/10 09:04:14;;;;;;;;;3.75;2.00;;;;;23.15;49.99;101358.38;5074367;28;45494;-73
2022/06/10 09:06:47;;;;;;;;;1.75;1.00;;;;;23.28;50.02;101359.09;5073884;27;45379;-71
2022/06/10 09:09:15;;;;;;;;;2.00;2.00;;;;;23.43;49.78;101362.38;5075044;27;45578;-75
2022/06/10 09:11:52;;;;;;;;;2.75;1.25;;;;;23.68;49.17;101362.13;5074100;27;45526;-70
2022/06/10 09:14:22;;;;;;;;;3.00;1.50;;;;;23.73;49.11;101362.59;5074915;27;45374;-74
2022/06/10 09:17:13;;;;;;;;;2.00;2.00;;;;;23.66;49.24;101361.41;5074845;27;45371;-69
2022/06/10 09:19:53;;;;;;;;;6.25;3.00;;;;;23.72;49.00;101351.00;5075264;28;45262;-69
2022/06/10 09:22:47;;;;;;;;;3.33;3.33;;;;;23.77;49.42;101353.28;5074404;27;46221;-67
2022/06/10 09:25:25;;;;;;;;;2.25;2.25;;;;;23.90;47.92;101362.03;5073427;28;45316;-68
2022/06/10 09:27:55;;;;;;;;;3.00;3.00;;;;;23.89;47.98;101352.28;5074479;27;45509;-69
2022/06/10 09:30:28;;;;;;;;;1.00;1.00;;;;;23.92;47.64;101356.53;5074834;28;45235;-69
2022/06/10 09:33:09;;;;;;;;;2.25;1.25;;;;;23.95;47.01;101355.44;5074561;27;46617;-69
2022/06/10 09:35:58;;;;;;;;;1.00;1.00;;;;;23.87;46.58;101365.00;5074713;27;45370;-69
2022/06/10 09:38:35;;;;;;;;;3.50;2.00;;;;;23.68;47.00;101354.94;5074276;28;45462;-68
2022/06/10 09:41:26;;;;;;;;;1.00;1.00;;;;;23.58;47.40;101357.53;5074620;27;45235;-69
2022/06/10 09:44:19;;;;;;;;;5.75;3.00;;;;;23.65;47.57;101360.56;5074251;27;45434;-71
2022/06/10 09:47:17;;;;;;;;;1.00;1.00;;;;;23.81;47.91;101359.28;5073898;27;45579;-69
2022/06/10 09:50:03;;;;;;;;;6.00;6.00;;;;;23.97;47.71;101358.84;5074388;27;45362;-70
2022/06/10 09:52:31;;;;;;;;;3.25;3.25;;;;;24.11;46.44;101361.22;5077997;27;45463;-69
2022/06/10 09:55:22;;;;;;;;;4.25;3.00;;;;;24.27;47.12;101365.28;5077308;28;46588;-68
2022/06/10 09:58:09;;;;;;;;;2.00;2.00;;;;;24.45;46.99;101360.16;5077540;27;45316;-70
2022/06/10 10:01:01;;;;;;;;;3.00;3.00;;;;;24.62;46.32;101364.91;5078085;27;45343;-70
2022/06/10 10:03:53;;;;;;;;;2.00;2.00;;;;;24.72;45.98;101358.72;5093429;27;45350;-69
2022/06/10 10:06:39;;;;;;;;;3.00;2.75;;;;;24.66;45.83;101368.16;5058772;27;45373;-69
2022/06/10 10:09:13;;;;;;;;;3.50;3.50;;;;;24.62;46.09;101364.91;5078136;27;45333;-70
2022/06/10 10:11:44;;;;;;;;;2.50;2.50;;;;;24.72;46.17;101364.09;5077082;27;45574;-71
2022/06/10 10:14:21;;;;;;;;;2.75;2.75;;;;;24.77;46.33;101361.88;5077561;28;45379;-69
2022/06/10 10:17:22;;;;;;;;;2.50;2.50;;;;;24.83;46.07;101368.53;5077357;27;45452;-68
2022/06/10 10:20:09;;;;;;;;;3.75;2.50;;;;;24.94;46.22;101368.44;5077366;27;45394;-69
2022/06/10 10:23:05;;;;;;;;;2.75;2.75;;;;;25.11;46.21;101371.47;5077587;27;45235;-69
2022/06/10 10:25:31;;;;;;;;;2.00;2.00;;;;;25.16;46.03;101364.66;5077413;27;45346;-69
2022/06/10 10:27:57;;;;;;;;;2.75;2.00;;;;;25.18;45.91;101361.84;5076808;27;46080;-70
2022/06/10 10:30:38;;;;;;;;;4.00;2.25;;;;;25.43;45.65;101359.59;5077015;27;45294;-68
2022/06/10 10:33:08;;;;;;;;;2.25;2.25;;;;;25.68;45.40;101360.94;5077742;28;45320;-69
2022/06/10 10:35:38;;;;;;;;;3.00;1.00;;;;;25.76;44.81;101361.06;5077829;28;45470;-69
2022/06/10 10:38:10;;;;;;;;;1.50;1.50;;;;;25.83;45.24;101360.50;5077099;27;47218;-69
2022/06/10 10:40:45;;;;;;;;;2.75;2.75;;;;;25.88;45.10;101364.44;5077742;27;45388;-69
2022/06/10 10:43:24;;;;;;;;;2.25;2.25;;;;;25.99;44.87;101368.84;5077219;27;45326;-68
2022/06/10 10:46:00;;;;;;;;;4.00;4.00;;;;;26.09;44.36;101368.84;5077460;27;45295;-68
2022/06/10 10:48:32;;;;;;;;;3.00;3.00;;;;;26.14;44.28;101363.88;5076793;27;45491;-68
2022/06/10 10:51:10;;;;;;;;;3.00;1.75;;;;;26.07;44.65;101365.44;5076789;28;45315;-70
2022/06/10 10:53:42;;;;;;;;;2.75;1.50;;;;;25.95;44.78;101352.09;5077590;27;45443;-69
2022/06/10 10:56:12;;;;;;;;;1.25;1.25;;;;;25.92;44.97;101352.38;5093231;27;45432;-69
2022/06/10 10:58:46;;;;;;;;;4.50;4.50;;;;;26.03;45.45;101353.25;5077002;27;45338;-69
2022/06/10 11:03:56;;;;;;;;;4.75;3.25;;;;;26.31;44.44;101353.34;5076509;28;45211;-68
2022/06/10 11:06:29;;;;;;;;;1.50;1.50;;;;;26.36;43.70;101360.00;5076978;27;45473;-70
2022/06/10 11:08:57;;;;;;;;;0.75;0.75;;;;;26.51;44.29;101356.84;5076557;27;46161;-70
2022/06/10 11:11:35;;;;;;;;;3.00;1.00;;;;;26.65;44.06;101356.34;5076311;27;45365;-69
2022/06/10 11:14:21;;;;;;;;;2.00;2.00;;;;;26.57;44.27;101358.09;5076314;27;45365;-69
2022/06/10 11:17:14;;;;;;;;;3.00;3.00;;;;;26.50;44.34;101360.50;5076787;27;45185;-69
2022/06/10 11:19:48;;;;;;;;;3.75;3.75;;;;;26.67;44.50;101353.50;5076316;28;45476;-69
2022/06/10 11:22:19;;;;;;;;;4.75;4.00;;;;;26.76;43.40;101360.69;5075934;27;45364;-71
2022/06/10 11:25:15;;;;;;;;;3.25;3.00;;;;;26.67;43.61;101362.44;5076515;27;45421;-70
2022/06/10 11:28:17;;;;;;;;;4.25;4.25;;;;;26.59;43.80;101367.75;5069790;27;45470;-69
2022/06/10 11:30:48;;;;;;;;;3.00;3.00;;;;;26.55;43.39;101360.94;5074300;28;47047;-67
2022/06/10 11:33:37;;;;;;;;;4.25;4.25;;;;;26.50;44.27;101363.22;5076397;27;45442;-69
2022/06/10 11:36:08;;;;;;;;;2.75;2.75;;;;;26.46;43.63;101359.09;5076058;27;45336;-71
2022/06/10 11:38:37;;;;;;;;;5.25;5.25;;;;;26.41;44.04;101356.88;5074862;28;45379;-68
2022/06/10 11:41:21;;;;;;;;;3.00;1.75;;;;;26.54;43.94;101353.84;5075966;27;46670;-69
2022/06/10 11:43:53;;;;;;;;;6.75;6.75;;;;;26.52;43.93;101348.59;5076372;28;45271;-68
2022/06/10 11:46:27;;;;;;;;;8.75;6.75;;;;;26.58;43.67;101349.84;5076329;27;45373;-68
2022/06/10 11:49:19;;;;;;;;;2.00;2.00;;;;;26.55;43.23;101347.44;5076622;28;45360;-70
2022/06/10 11:51:52;;;;;;;;;2.00;2.00;;;;;26.61;43.83;101352.25;5076140;27;46575;-69
2022/06/10 11:54:47;;;;;;;;;1.75;1.75;;;;;26.88;42.91;101347.88;5108891;27;45293;-69
2022/06/10 12:00:22;;;;;;;;;4.00;1.00;;;;;26.97;42.99;101341.59;5076263;28;45197;-67
2022/06/10 12:02:48;;;;;;;;;5.00;2.25;;;;;27.11;43.00;101342.06;5075515;27;46105;-70